createdAt,value
2023-02-11T00:01:11.913Z,23.52
2023-02-11T00:03:39.914Z,23.52
2023-02-11T00:06:11.697Z,23.85
2023-02-11T00:08:39.905Z,21.80
2023-02-11T00:11:07.909Z,22.13
2023-02-11T00:13:35.798Z,20.42
2023-02-11T00:16:07.626Z,23.67
2023-02-11T00:18:36.495Z,22.92
2023-02-11T00:21:08.673Z,23.52
2023-02-11T00:23:36.580Z,22.57
2023-02-11T00:26:04.635Z,23.30
2023-02-11T00:28:33.460Z,23.10
2023-02-11T00:31:02.707Z,23.15
2023-02-11T00:33:30.532Z,24.15
2023-02-11T00:35:58.528Z,25.98
2023-02-11T00:38:26.307Z,24.13
2023-02-11T00:40:54.167Z,24.38
2023-02-11T00:43:21.989Z,23.17
2023-02-11T00:45:52.138Z,23.88
2023-02-11T00:48:20.318Z,24.05
2023-02-11T00:50:48.156Z,24.70
2023-02-11T00:53:16.032Z,24.83
2023-02-11T00:55:43.789Z,24.55
2023-02-11T00:58:11.746Z,23.83
2023-02-11T01:00:39.511Z,23.75
2023-02-11T01:03:07.458Z,23.02
2023-02-11T01:05:35.344Z,23.75
2023-02-11T01:08:03.802Z,26.52
2023-02-11T01:10:31.787Z,24.05
2023-02-11T01:13:00.088Z,23.67
2023-02-11T01:15:27.931Z,24.23
2023-02-11T01:17:57.396Z,24.42
2023-02-11T01:20:26.856Z,24.52
2023-02-11T01:22:54.619Z,24.77
2023-02-11T01:25:22.621Z,25.25
2023-02-11T01:27:50.417Z,23.48
2023-02-11T01:30:18.193Z,24.33
2023-02-11T01:32:48.539Z,25.48
2023-02-11T01:35:16.305Z,25.30
2023-02-11T01:37:44.044Z,24.67
2023-02-11T01:40:14.855Z,24.05
2023-02-11T01:42:42.712Z,24.77
2023-02-11T01:45:29.372Z,23.75
2023-02-11T01:47:57.334Z,24.60
2023-02-11T01:50:25.342Z,24.45
2023-02-11T01:52:53.300Z,24.33
2023-02-11T01:55:40.601Z,24.00
2023-02-11T01:58:08.407Z,25.10
2023-02-11T02:00:37.946Z,25.55
2023-02-11T02:03:05.697Z,25.05
2023-02-11T02:05:37.782Z,23.55
2023-02-11T02:08:14.904Z,25.75
2023-02-11T02:10:45.201Z,24.40
2023-02-11T02:13:13.449Z,23.67
2023-02-11T02:15:43.631Z,24.35
2023-02-11T02:18:26.824Z,24.63
2023-02-11T02:23:22.314Z,24.00
2023-02-11T02:26:05.537Z,24.15
2023-02-11T02:31:12.342Z,24.30
2023-02-11T02:33:43.391Z,23.77
2023-02-11T02:36:16.933Z,24.65
2023-02-11T02:38:48.728Z,24.15
2023-02-11T02:41:18.570Z,25.83
2023-02-11T02:43:48.576Z,27.85
2023-02-11T02:46:21.528Z,29.63
2023-02-11T02:53:59.778Z,25.77
2023-02-11T02:56:46.411Z,26.25
2023-02-11T02:59:33.153Z,26.42
2023-02-11T03:02:10.993Z,25.88
2023-02-11T03:04:48.038Z,24.90
2023-02-11T03:07:25.232Z,26.15
2023-02-11T03:10:00.318Z,27.83
2023-02-11T03:12:29.819Z,25.50
2023-02-11T03:14:57.605Z,27.15
2023-02-11T03:17:26.302Z,26.50
2023-02-11T03:19:54.595Z,26.30
2023-02-11T03:22:33.550Z,26.02
2023-02-11T03:25:02.866Z,24.13
2023-02-11T03:27:42.505Z,25.52
2023-02-11T03:30:30.551Z,24.80
2023-02-11T03:33:04.103Z,25.38
2023-02-11T03:35:53.697Z,24.25
2023-02-11T03:38:23.669Z,24.90
2023-02-11T03:40:51.892Z,25.92
2023-02-11T03:43:22.826Z,25.83
2023-02-11T03:45:52.572Z,25.88
2023-02-11T03:48:30.349Z,26.48
2023-02-11T03:50:59.527Z,25.20
2023-02-11T03:53:27.403Z,26.95
2023-02-11T03:55:55.635Z,25.58
2023-02-11T03:58:23.447Z,26.05
2023-02-11T04:00:51.416Z,26.00
2023-02-11T04:03:19.309Z,25.52
2023-02-11T04:05:47.260Z,26.25
2023-02-11T04:08:15.143Z,25.17
2023-02-11T04:10:43.115Z,26.10
2023-02-11T04:13:10.938Z,25.55
2023-02-11T04:15:38.861Z,24.80
2023-02-11T04:18:06.810Z,25.00
2023-02-11T04:20:34.625Z,24.50
2023-02-11T04:23:02.664Z,25.88
2023-02-11T04:25:30.509Z,26.48
2023-02-11T04:27:58.410Z,25.95
2023-02-11T04:30:26.425Z,25.40
2023-02-11T04:32:54.567Z,24.42
2023-02-11T04:35:22.455Z,24.80
2023-02-11T04:37:50.440Z,25.13
2023-02-11T04:40:18.219Z,25.20
2023-02-11T04:42:45.973Z,25.15
2023-02-11T04:45:13.847Z,25.85
2023-02-11T04:47:41.577Z,26.85
2023-02-11T04:50:09.529Z,25.38
2023-02-11T04:52:37.382Z,25.38
2023-02-11T04:55:05.364Z,26.42
2023-02-11T04:57:34.206Z,24.27
2023-02-11T05:00:02.058Z,24.85
2023-02-11T05:02:29.883Z,25.02
2023-02-11T05:04:57.623Z,24.08
2023-02-11T05:07:25.476Z,24.33
2023-02-11T05:09:53.418Z,24.98
2023-02-11T05:12:21.917Z,25.98
2023-02-11T05:14:49.654Z,25.77
2023-02-11T05:17:17.696Z,25.88
2023-02-11T05:19:45.472Z,24.65
2023-02-11T05:22:13.335Z,24.48
2023-02-11T05:24:41.273Z,26.98
2023-02-11T05:27:09.309Z,24.90
2023-02-11T05:29:37.089Z,25.20
2023-02-11T05:32:05.160Z,24.90
2023-02-11T05:34:32.912Z,25.60
2023-02-11T05:37:00.829Z,24.00
2023-02-11T05:39:28.660Z,24.85
2023-02-11T05:41:56.614Z,24.85
2023-02-11T05:44:24.493Z,25.15
2023-02-11T05:46:52.543Z,25.23
2023-02-11T05:49:20.315Z,24.75
2023-02-11T05:51:48.367Z,24.15
2023-02-11T05:54:16.923Z,27.48
2023-02-11T05:56:45.085Z,24.92
2023-02-11T05:59:14.210Z,25.77
2023-02-11T06:01:42.251Z,25.65
2023-02-11T06:04:10.223Z,28.75
2023-02-11T06:06:38.003Z,28.33
2023-02-11T06:09:06.004Z,27.60
2023-02-11T06:11:33.771Z,25.48
2023-02-11T06:14:02.260Z,28.58
2023-02-11T06:16:30.196Z,25.48
2023-02-11T06:18:58.083Z,29.75
2023-02-11T06:21:36.331Z,30.40
2023-02-11T06:24:10.582Z,26.92
2023-02-11T06:26:38.535Z,26.30
2023-02-11T06:29:06.429Z,24.88
2023-02-11T06:31:34.440Z,25.00
2023-02-11T06:34:02.424Z,31.85
2023-02-11T06:36:30.444Z,29.83
2023-02-11T06:38:58.260Z,24.25
2023-02-11T06:41:26.309Z,27.98
2023-02-11T06:43:57.341Z,25.90
2023-02-11T06:46:25.547Z,25.92
2023-02-11T06:48:53.356Z,25.23
2023-02-11T06:51:21.363Z,26.05
2023-02-11T06:53:49.259Z,30.83
2023-02-11T06:56:18.734Z,37.85
2023-02-11T06:58:47.377Z,30.20
2023-02-11T07:01:16.516Z,26.75
2023-02-11T07:03:46.563Z,25.65
2023-02-11T07:06:15.831Z,26.02
2023-02-11T07:08:46.214Z,26.77
2023-02-11T07:11:17.579Z,28.52
2023-02-11T07:13:45.485Z,26.95
2023-02-11T07:16:17.112Z,27.50
2023-02-11T07:18:45.798Z,27.73
2023-02-11T07:21:14.848Z,27.73
2023-02-11T07:23:43.286Z,27.08
2023-02-11T07:26:12.891Z,29.60
2023-02-11T07:28:41.426Z,28.50
2023-02-11T07:31:12.348Z,29.63
2023-02-11T07:33:44.673Z,27.92
2023-02-11T07:36:13.170Z,31.45
2023-02-11T07:38:44.860Z,29.27
2023-02-11T07:41:17.161Z,30.63
2023-02-11T07:43:55.721Z,33.45
2023-02-11T07:46:25.209Z,32.05
2023-02-11T07:48:53.501Z,31.98
2023-02-11T07:51:22.712Z,32.53
2023-02-11T07:53:50.763Z,31.40
2023-02-11T07:56:22.862Z,32.78
2023-02-11T07:58:51.438Z,31.93
2023-02-11T08:01:22.684Z,32.13
2023-02-11T08:03:50.827Z,31.88
2023-02-11T08:06:20.434Z,38.30
2023-02-11T08:08:48.518Z,46.83
2023-02-11T08:11:16.426Z,118.47
2023-02-11T08:13:48.369Z,35.10
2023-02-11T08:16:31.708Z,33.22
2023-02-11T08:19:00.789Z,33.13
2023-02-11T08:21:38.126Z,33.05
2023-02-11T08:24:08.235Z,32.42
2023-02-11T08:26:45.508Z,32.50
2023-02-11T08:29:15.677Z,31.38
2023-02-11T08:31:45.295Z,28.33
2023-02-11T08:34:14.421Z,28.77
2023-02-11T08:36:43.527Z,30.77
2023-02-11T08:39:19.560Z,28.65
2023-02-11T08:41:49.072Z,27.80
2023-02-11T08:44:17.520Z,26.38
2023-02-11T08:46:47.151Z,26.88
2023-02-11T08:49:15.406Z,26.38
2023-02-11T08:51:43.712Z,26.25
2023-02-11T08:54:11.774Z,29.15
2023-02-11T08:56:39.834Z,29.10
2023-02-11T08:59:09.314Z,24.75
2023-02-11T09:01:37.416Z,22.20
2023-02-11T09:04:05.455Z,29.63
2023-02-11T09:06:33.548Z,28.50
2023-02-11T09:09:01.477Z,30.50
2023-02-11T09:11:31.428Z,31.23
2023-02-11T09:13:59.357Z,28.35
2023-02-11T09:16:28.754Z,28.48
2023-02-11T09:19:00.392Z,28.95
2023-02-11T09:21:28.900Z,27.30
2023-02-11T09:23:56.873Z,25.00
2023-02-11T09:26:26.404Z,23.90
2023-02-11T09:28:54.693Z,23.55
2023-02-11T09:31:23.980Z,21.13
2023-02-11T09:33:53.670Z,20.88
2023-02-11T09:36:22.864Z,18.73
2023-02-11T09:38:51.014Z,19.92
2023-02-11T09:41:24.908Z,20.40
2023-02-11T09:43:54.163Z,28.60
2023-02-11T09:46:22.595Z,30.25
2023-02-11T09:48:52.797Z,28.20
2023-02-11T09:51:33.179Z,34.30
2023-02-11T09:54:05.702Z,26.50
2023-02-11T09:56:33.694Z,26.13
2023-02-11T09:59:04.942Z,23.38
2023-02-11T10:01:48.073Z,26.40
2023-02-11T10:04:28.371Z,29.95
2023-02-11T10:06:58.399Z,28.88
2023-02-11T10:09:35.483Z,29.30
2023-02-11T10:12:27.482Z,28.92
2023-02-11T10:15:27.446Z,32.17
2023-02-11T10:18:22.019Z,37.42
2023-02-11T10:21:07.573Z,40.05
2023-02-11T10:23:39.417Z,34.15
2023-02-11T10:26:17.310Z,39.25
2023-02-11T10:28:46.676Z,37.85
2023-02-11T10:31:20.878Z,31.70
2023-02-11T10:33:55.167Z,29.42
2023-02-11T10:36:24.928Z,26.48
2023-02-11T10:38:52.841Z,26.05
2023-02-11T10:41:27.391Z,23.52
2023-02-11T10:43:55.746Z,21.77
2023-02-11T10:46:26.870Z,24.05
2023-02-11T10:48:55.225Z,24.25
2023-02-11T10:51:24.279Z,25.77
2023-02-11T10:54:19.287Z,25.27
2023-02-11T10:56:47.098Z,24.23
2023-02-11T10:59:14.973Z,23.02
2023-02-11T11:01:47.577Z,25.30
2023-02-11T11:04:32.250Z,27.45
2023-02-11T11:07:12.387Z,41.63
2023-02-11T11:09:49.555Z,28.48
2023-02-11T11:12:30.362Z,25.60
2023-02-11T11:14:59.704Z,25.23
2023-02-11T11:17:31.167Z,25.85
2023-02-11T11:20:14.440Z,29.38
2023-02-11T11:22:43.087Z,25.23
2023-02-11T11:25:31.345Z,28.70
2023-02-11T11:28:01.280Z,31.75
2023-02-11T11:30:40.399Z,28.75
2023-02-11T11:33:17.023Z,27.45
2023-02-11T11:35:45.087Z,25.42
2023-02-11T11:38:14.009Z,27.88
2023-02-11T11:40:41.877Z,26.30
2023-02-11T11:43:16.005Z,26.58
2023-02-11T11:45:54.769Z,25.55
2023-02-11T11:48:25.891Z,24.40
2023-02-11T11:51:05.038Z,26.30
2023-02-11T11:53:34.388Z,28.80
2023-02-11T11:56:09.521Z,25.52
2023-02-11T11:58:46.257Z,27.08
2023-02-11T12:01:31.550Z,25.58
2023-02-11T12:04:01.519Z,26.65
2023-02-11T12:06:41.184Z,23.17
2023-02-11T12:09:08.980Z,24.05
2023-02-11T12:11:54.999Z,25.92
2023-02-11T12:14:44.596Z,29.23
2023-02-11T12:17:24.897Z,23.27
2023-02-11T12:19:59.072Z,23.30
2023-02-11T12:22:42.417Z,31.58
2023-02-11T12:25:29.237Z,34.50
2023-02-11T12:28:15.812Z,27.48
2023-02-11T12:30:46.854Z,22.77
2023-02-11T12:33:23.913Z,20.40
2023-02-11T12:36:15.346Z,21.42
2023-02-11T12:39:01.869Z,21.35
2023-02-11T12:41:51.395Z,22.73
2023-02-11T12:44:31.618Z,24.80
2023-02-11T12:47:14.591Z,24.75
2023-02-11T12:49:48.964Z,23.95
2023-02-11T12:52:24.496Z,23.08
2023-02-11T12:54:52.587Z,22.77
2023-02-11T12:57:26.158Z,23.50
2023-02-11T13:00:25.030Z,30.73
2023-02-11T13:03:08.388Z,30.77
2023-02-11T13:05:37.557Z,23.63
2023-02-11T13:08:13.955Z,21.08
2023-02-11T13:10:42.792Z,20.13
2023-02-11T13:13:38.506Z,20.90
2023-02-11T13:16:09.314Z,19.65
2023-02-11T13:18:50.614Z,20.25
2023-02-11T13:21:24.498Z,21.23
2023-02-11T13:24:10.757Z,18.55
2023-02-11T13:26:48.954Z,19.45
2023-02-11T13:29:16.750Z,19.58
2023-02-11T13:31:53.610Z,19.65
2023-02-11T13:34:25.622Z,18.55
2023-02-11T13:36:57.252Z,18.42
2023-02-11T13:39:25.320Z,18.55
2023-02-11T13:42:02.714Z,17.77
2023-02-11T13:44:31.057Z,17.73
2023-02-11T13:46:59.182Z,18.83
2023-02-11T13:49:36.051Z,16.52
2023-02-11T13:52:05.708Z,18.98
2023-02-11T13:54:35.314Z,19.35
2023-02-11T13:57:21.348Z,19.10
2023-02-11T13:59:50.674Z,17.48
2023-02-11T14:02:38.206Z,16.80
2023-02-11T14:05:24.721Z,15.57
2023-02-11T14:08:40.162Z,24.63
2023-02-11T14:11:30.239Z,19.02
2023-02-11T14:14:04.244Z,17.73
2023-02-11T14:16:38.425Z,19.75
2023-02-11T14:19:06.940Z,17.38
2023-02-11T14:21:40.373Z,17.67
2023-02-11T14:26:46.724Z,18.80
2023-02-11T14:29:20.243Z,18.65
2023-02-11T14:31:48.451Z,22.05
2023-02-11T14:34:33.046Z,19.60
2023-02-11T14:37:01.037Z,19.77
2023-02-11T14:39:38.661Z,21.30
2023-02-11T14:42:07.003Z,20.65
2023-02-11T14:44:35.062Z,20.90
2023-02-11T14:47:03.335Z,21.52
2023-02-11T14:49:37.152Z,20.83
2023-02-11T14:52:07.817Z,20.58
2023-02-11T14:54:35.965Z,22.45
2023-02-11T14:57:09.176Z,21.75
2023-02-11T14:59:37.032Z,22.30
2023-02-11T15:02:20.463Z,22.45
2023-02-11T15:04:48.276Z,21.55
2023-02-11T15:07:16.588Z,22.08
2023-02-11T15:09:47.238Z,22.27
2023-02-11T15:12:20.290Z,22.73
2023-02-11T15:14:49.667Z,22.45
2023-02-11T15:17:19.340Z,21.75
2023-02-11T15:19:49.218Z,22.67
2023-02-11T15:22:18.890Z,22.17
2023-02-11T15:24:46.785Z,22.45
2023-02-11T15:27:16.292Z,23.02
2023-02-11T15:29:45.849Z,22.00
2023-02-11T15:32:15.979Z,22.85
2023-02-11T15:34:44.751Z,21.20
2023-02-11T15:37:23.121Z,21.98
2023-02-11T15:39:51.261Z,20.95
2023-02-11T15:42:22.240Z,22.38
2023-02-11T15:44:56.533Z,22.83
2023-02-11T15:47:30.408Z,21.75
2023-02-11T15:49:58.632Z,21.00
2023-02-11T15:52:27.680Z,21.48
2023-02-11T15:54:56.870Z,20.95
2023-02-11T15:57:24.696Z,26.27
2023-02-11T15:59:53.949Z,23.35
2023-02-11T16:02:23.250Z,23.23
2023-02-11T16:04:58.868Z,24.17
2023-02-11T16:07:39.017Z,22.23
2023-02-11T16:10:25.764Z,25.52
2023-02-11T16:13:01.121Z,23.17
2023-02-11T16:15:52.635Z,22.95
2023-02-11T16:18:37.720Z,22.45
2023-02-11T16:21:07.966Z,22.90
2023-02-11T16:23:37.419Z,24.17
2023-02-11T16:26:22.745Z,24.45
2023-02-11T16:28:51.131Z,23.45
2023-02-11T16:31:19.486Z,24.10
2023-02-11T16:33:47.363Z,24.17
2023-02-11T16:36:19.688Z,24.30
2023-02-11T16:38:47.429Z,17.15
2023-02-11T16:41:15.358Z,22.92
2023-02-11T16:43:43.281Z,23.23
2023-02-11T16:46:20.120Z,23.75
2023-02-11T16:48:56.604Z,25.27
2023-02-11T16:51:24.737Z,24.45
2023-02-11T16:53:52.551Z,28.77
2023-02-11T16:56:20.628Z,29.25
2023-02-11T16:58:48.428Z,29.83
2023-02-11T17:01:17.505Z,33.13
2023-02-11T17:03:45.794Z,25.00
2023-02-11T17:06:14.604Z,24.73
2023-02-11T17:08:42.571Z,24.88
2023-02-11T17:11:10.639Z,36.85
2023-02-11T17:13:39.639Z,32.25
2023-02-11T17:16:12.102Z,25.70
2023-02-11T17:18:39.969Z,26.57
2023-02-11T17:21:08.131Z,25.95
2023-02-11T17:23:35.932Z,25.27
2023-02-11T17:26:04.348Z,24.80
2023-02-11T17:28:32.644Z,26.25
2023-02-11T17:31:00.964Z,26.83
2023-02-11T17:33:28.870Z,26.95
2023-02-11T17:35:56.763Z,27.98
2023-02-11T17:38:24.496Z,43.03
2023-02-11T17:40:59.231Z,28.02
2023-02-11T17:43:27.331Z,28.75
2023-02-11T17:45:55.757Z,28.42
2023-02-11T17:48:23.587Z,37.25
2023-02-11T17:50:51.555Z,32.67
2023-02-11T17:53:19.452Z,31.70
2023-02-11T17:55:47.318Z,29.20
2023-02-11T17:58:15.367Z,28.10
2023-02-11T18:00:45.263Z,27.48
2023-02-11T18:03:13.033Z,28.30
2023-02-11T18:05:41.054Z,29.33
2023-02-11T18:08:08.878Z,29.33
2023-02-11T18:10:36.841Z,28.58
2023-02-11T18:13:04.592Z,28.58
2023-02-11T18:15:34.284Z,28.17
2023-02-11T18:18:02.026Z,28.13
2023-02-11T18:20:30.049Z,29.75
2023-02-11T18:22:57.930Z,28.48
2023-02-11T18:25:26.092Z,27.48
2023-02-11T18:27:53.957Z,36.38
2023-02-11T18:30:22.670Z,32.60
2023-02-11T18:32:55.307Z,33.38
2023-02-11T18:35:23.771Z,35.85
2023-02-11T18:37:52.151Z,32.90
2023-02-11T18:40:20.006Z,30.38
2023-02-11T18:42:51.675Z,40.25
2023-02-11T18:49:28.495Z,30.20
2023-02-11T18:51:58.854Z,31.55
2023-02-11T18:54:26.828Z,32.63
2023-02-11T18:56:54.785Z,30.42
2023-02-11T18:59:22.556Z,43.13
2023-02-11T19:01:51.296Z,35.00
2023-02-11T19:04:20.306Z,31.40
2023-02-11T19:06:49.826Z,31.88
2023-02-11T19:09:19.072Z,30.92
2023-02-11T19:11:47.275Z,73.38
2023-02-11T19:14:16.455Z,36.08
2023-02-11T19:16:46.227Z,31.15
2023-02-11T19:19:14.515Z,31.15
2023-02-11T19:21:43.761Z,30.55
2023-02-11T19:24:12.359Z,31.10
2023-02-11T19:26:40.182Z,35.35
2023-02-11T19:29:08.173Z,34.65
2023-02-11T19:31:36.612Z,31.30
2023-02-11T19:34:04.762Z,31.95
2023-02-11T19:36:33.074Z,32.00
2023-02-11T19:39:02.019Z,32.65
2023-02-11T19:41:30.497Z,39.58
2023-02-11T19:43:58.767Z,32.85
2023-02-11T19:46:27.198Z,39.55
2023-02-11T19:48:55.573Z,83.72
2023-02-11T19:51:24.166Z,33.72
2023-02-11T19:53:54.068Z,32.58
2023-02-11T19:56:23.454Z,42.17
2023-02-11T19:58:51.658Z,38.25
2023-02-11T20:01:21.677Z,32.75
2023-02-11T20:03:50.776Z,32.20
2023-02-11T20:06:20.367Z,32.70
2023-02-11T20:08:48.147Z,32.70
2023-02-11T20:11:17.214Z,33.78
2023-02-11T20:13:45.137Z,35.88
2023-02-11T20:16:14.390Z,34.55
2023-02-11T20:18:42.345Z,33.60
2023-02-11T20:21:21.326Z,33.05
2023-02-11T20:23:50.129Z,33.25
2023-02-11T20:26:19.434Z,31.58
2023-02-11T20:28:48.472Z,33.55
2023-02-11T20:31:17.601Z,31.55
2023-02-11T20:33:47.088Z,30.75
2023-02-11T20:36:22.430Z,31.95
2023-02-11T20:38:50.814Z,35.13
2023-02-11T20:41:23.874Z,31.83
2023-02-11T20:43:53.253Z,32.45
2023-02-11T20:46:22.826Z,31.83
2023-02-11T20:48:52.587Z,32.03
2023-02-11T20:51:22.366Z,33.38
2023-02-11T20:53:53.866Z,34.55
2023-02-11T20:56:26.794Z,34.05
2023-02-11T20:58:55.153Z,35.72
2023-02-11T21:01:49.643Z,35.08
2023-02-11T21:04:19.051Z,34.72
2023-02-11T21:06:50.002Z,34.13
2023-02-11T21:09:22.214Z,35.95
2023-02-11T21:11:51.864Z,34.33
2023-02-11T21:14:20.656Z,38.00
2023-02-11T21:16:49.256Z,36.20
2023-02-11T21:19:20.424Z,40.20
2023-02-11T21:21:48.647Z,34.33
2023-02-11T21:24:16.516Z,36.97
2023-02-11T21:26:44.776Z,36.03
2023-02-11T21:29:12.914Z,34.70
2023-02-11T21:31:41.229Z,36.50
2023-02-11T21:34:09.270Z,37.78
2023-02-11T21:36:37.334Z,36.67
2023-02-11T21:39:13.260Z,37.72
2023-02-11T21:41:42.934Z,36.83
2023-02-11T21:44:14.564Z,37.80
2023-02-11T21:46:44.661Z,39.08
2023-02-11T21:49:15.154Z,37.75
2023-02-11T21:51:47.456Z,38.83
2023-02-11T21:54:23.092Z,38.15
2023-02-11T21:56:52.489Z,37.60
2023-02-11T21:59:21.558Z,37.15
2023-02-11T22:01:50.624Z,36.97
2023-02-11T22:04:18.843Z,37.30
2023-02-11T22:06:50.044Z,37.40
2023-02-11T22:09:18.191Z,36.75
2023-02-11T22:11:46.677Z,39.45
2023-02-11T22:14:14.852Z,38.45
2023-02-11T22:16:44.751Z,39.00
2023-02-11T22:19:13.455Z,39.30
2023-02-11T22:21:43.680Z,39.30
2023-02-11T22:24:12.041Z,39.97
2023-02-11T22:26:41.551Z,52.22
2023-02-11T22:29:12.612Z,40.95
2023-02-11T22:31:55.296Z,40.88
2023-02-11T22:34:31.150Z,39.88
2023-02-11T22:36:59.073Z,41.92
2023-02-11T22:39:26.803Z,40.10
2023-02-11T22:41:56.583Z,39.38
2023-02-11T22:44:24.997Z,40.22
2023-02-11T22:46:53.769Z,38.85
2023-02-11T22:49:23.372Z,43.30
2023-02-11T22:51:54.947Z,40.40
2023-02-11T22:54:25.390Z,42.72
2023-02-11T22:56:56.256Z,41.92
2023-02-11T22:59:24.947Z,40.83
2023-02-11T23:01:53.660Z,41.80
2023-02-11T23:04:21.824Z,42.50
2023-02-11T23:06:50.630Z,41.80
2023-02-11T23:09:19.008Z,44.50
2023-02-11T23:11:49.595Z,43.80
2023-02-11T23:14:17.727Z,46.03
2023-02-11T23:16:45.718Z,44.85
2023-02-11T23:19:13.654Z,43.42
2023-02-11T23:21:41.712Z,43.15
2023-02-11T23:24:12.017Z,41.65
2023-02-11T23:26:40.596Z,42.15
2023-02-11T23:29:08.902Z,42.67
2023-02-11T23:31:39.665Z,42.42
2023-02-11T23:34:08.365Z,42.50
2023-02-11T23:36:36.888Z,42.30
2023-02-11T23:39:05.214Z,41.40
2023-02-11T23:41:34.554Z,40.42
2023-02-11T23:44:02.712Z,39.63
2023-02-11T23:46:30.681Z,40.95
2023-02-11T23:48:58.784Z,39.65
2023-02-11T23:51:26.586Z,39.35
2023-02-11T23:53:56.221Z,39.67
2023-02-11T23:56:25.521Z,37.58
2023-02-11T23:58:54.491Z,38.17
